Terminal Aerodrome Forecast
Issued by NWS Cleveland, OH

Home | Current Version | Previous Version | Text Only | Print | Product List | Glossary On
Versions: 1 2 3 4 5 6 7 8 9 10 11 12 13 14 15 16 17 18 19
000
FTUS41 KCLE 281600 AAA
TAFMFD
TAF AMD
KMFD 281605Z 2816/2912 20006KT P6SM SCT025 BKN035
      TEMPO 2816/2819 BKN025
     FM281900 20008KT P6SM BKN050
     FM290000 18006KT P6SM BKN100=

USA.gov is the U.S. government's official web portal to all federal, state and local government web resources and services.